Time;durP1;ratioP1;P1;durP2;ratioP2;P2;SDS_P1;SDS_P2;PMS_P1;PMS_P2;Temp;Humidity;BMP_temperature;BMP_pressure;BME280_temperature;BME280_humidity;BME280_pressure;Samples;Min_cycle;Max_cycle;Signal;HPM_P1;HPM_P2
2022/09/16 00:00:19;;;;;;;0.70;0.50;;;13.90;99.90;;;;;;5054028;28;20446;-78
2022/09/16 00:02:46;;;;;;;0.80;0.43;;;14.00;99.90;;;;;;5053853;28;20993;-78
2022/09/16 00:05:12;;;;;;;0.60;0.60;;;13.90;99.90;;;;;;5053869;28;20450;-79
2022/09/16 00:07:39;;;;;;;1.00;0.60;;;13.90;99.90;;;;;;5053863;28;20452;-78
2022/09/16 00:10:07;;;;;;;1.37;0.73;;;13.90;99.90;;;;;;5054010;28;20548;-78
2022/09/16 00:12:35;;;;;;;1.33;0.70;;;13.90;99.90;;;;;;5053636;28;20972;-78
2022/09/16 00:15:03;;;;;;;0.67;0.60;;;14.00;99.90;;;;;;5053973;28;20472;-78
2022/09/16 00:17:31;;;;;;;1.73;0.70;;;13.90;99.90;;;;;;5053652;28;20968;-78
2022/09/16 00:19:57;;;;;;;3.23;1.03;;;13.90;99.90;;;;;;5053877;28;20545;-78
2022/09/16 00:22:25;;;;;;;1.50;1.03;;;13.90;99.90;;;;;;5053829;28;20445;-78
2022/09/16 00:24:51;;;;;;;3.13;0.87;;;13.90;99.90;;;;;;5053497;28;20445;-78
2022/09/16 00:27:18;;;;;;;0.90;0.50;;;13.90;99.90;;;;;;5053447;28;20489;-78
2022/09/16 00:29:46;;;;;;;0.73;0.70;;;13.90;99.90;;;;;;5053689;28;20853;-82
2022/09/16 00:32:13;;;;;;;1.00;0.70;;;13.90;99.90;;;;;;5053471;28;20929;-86
2022/09/16 00:34:40;;;;;;;1.30;0.83;;;13.90;99.90;;;;;;5053649;28;20929;-87
2022/09/16 00:37:07;;;;;;;0.87;0.70;;;13.90;99.90;;;;;;5054012;28;20454;-86
2022/09/16 00:39:34;;;;;;;0.60;0.60;;;13.90;99.90;;;;;;5053988;28;20480;-87
2022/09/16 00:42:01;;;;;;;0.57;0.57;;;13.90;99.90;;;;;;5053625;28;20818;-86
2022/09/16 00:44:59;;;;;;;0.50;0.50;;;13.90;99.90;;;;;;5053407;28;20465;-86
2022/09/16 00:47:31;;;;;;;0.60;0.60;;;13.90;99.90;;;;;;5053692;28;20438;-78
2022/09/16 00:50:01;;;;;;;1.07;0.53;;;13.90;99.90;;;;;;5053423;28;20598;-81
2022/09/16 00:52:31;;;;;;;1.10;0.67;;;13.90;99.90;;;;;;5053346;28;20466;-81
2022/09/16 00:54:58;;;;;;;0.80;0.50;;;13.90;99.90;;;;;;5053373;28;20450;-81
2022/09/16 00:57:25;;;;;;;0.53;0.53;;;13.90;99.90;;;;;;5053404;28;20453;-81
2022/09/16 00:59:55;;;;;;;1.23;0.50;;;13.90;99.90;;;;;;5053023;28;20953;-81
2022/09/16 01:02:24;;;;;;;2.00;0.60;;;13.90;99.90;;;;;;5053256;28;20493;-81
2022/09/16 01:04:55;;;;;;;0.50;0.50;;;13.90;99.90;;;;;;5053314;28;20523;-81
2022/09/16 01:07:28;;;;;;;0.50;0.50;;;13.90;99.90;;;;;;5053313;28;20872;-81
2022/09/16 01:09:55;;;;;;;0.83;0.50;;;13.90;99.90;;;;;;5052032;28;20469;-81
2022/09/16 01:12:22;;;;;;;0.50;0.50;;;13.90;99.90;;;;;;5052840;28;20500;-81
2022/09/16 01:14:57;;;;;;;0.70;0.60;;;13.90;99.90;;;;;;5053238;28;20460;-81
2022/09/16 01:17:52;;;;;;;1.03;0.50;;;13.90;99.90;;;;;;5053221;28;20432;-81
2022/09/16 01:20:55;;;;;;;0.60;0.60;;;13.90;99.90;;;;;;5052850;28;20807;-81
2022/09/16 01:23:49;;;;;;;1.57;0.60;;;14.00;99.90;;;;;;5053084;28;20565;-81
2022/09/16 01:26:36;;;;;;;2.57;0.57;;;14.00;99.90;;;;;;5032218;28;20446;-81
2022/09/16 01:29:33;;;;;;;1.03;0.97;;;13.90;99.90;;;;;;5052797;28;20921;-81
2022/09/16 01:32:06;;;;;;;0.50;0.50;;;14.00;99.90;;;;;;5051237;28;20578;-81
2022/09/16 01:34:38;;;;;;;0.40;0.40;;;14.00;99.90;;;;;;5053053;28;20438;-81
2022/09/16 01:37:12;;;;;;;2.63;0.70;;;13.90;99.90;;;;;;5052764;28;20430;-81
2022/09/16 01:39:48;;;;;;;0.40;0.37;;;13.90;99.90;;;;;;5052722;28;20909;-81
2022/09/16 01:42:22;;;;;;;2.87;0.63;;;13.90;99.90;;;;;;5053161;28;20430;-81
2022/09/16 01:44:58;;;;;;;1.57;0.73;;;13.90;99.90;;;;;;5053270;28;20411;-81
2022/09/16 01:47:34;;;;;;;0.70;0.70;;;13.80;99.90;;;;;;5052931;28;20429;-81
2022/09/16 01:50:06;;;;;;;1.00;0.60;;;13.80;99.90;;;;;;5053138;28;20410;-81
2022/09/16 01:52:41;;;;;;;1.00;0.40;;;13.80;99.90;;;;;;5052819;28;20495;-81
2022/09/16 01:55:13;;;;;;;1.20;0.60;;;13.80;99.90;;;;;;5052871;28;20445;-81
2022/09/16 01:57:47;;;;;;;0.87;0.87;;;13.80;99.90;;;;;;5053086;28;20434;-81
2022/09/16 02:00:15;;;;;;;1.77;0.73;;;13.80;99.90;;;;;;5052806;28;20430;-81
2022/09/16 02:02:49;;;;;;;2.43;0.50;;;13.80;99.90;;;;;;5052659;28;20473;-81
2022/09/16 02:05:20;;;;;;;0.70;0.70;;;13.80;99.90;;;;;;5052487;28;20803;-81
2022/09/16 02:07:54;;;;;;;1.10;0.53;;;13.80;99.90;;;;;;5052731;28;20441;-81
2022/09/16 02:10:26;;;;;;;1.37;0.70;;;13.80;99.90;;;;;;5052642;28;20472;-81
2022/09/16 02:12:55;;;;;;;1.10;0.60;;;13.80;99.90;;;;;;5052661;28;20476;-81
2022/09/16 02:15:25;;;;;;;1.03;0.70;;;13.80;99.90;;;;;;5052644;28;20449;-81
2022/09/16 02:17:59;;;;;;;1.23;0.70;;;13.80;99.90;;;;;;5052307;28;20449;-81
2022/09/16 02:20:29;;;;;;;1.10;0.70;;;13.80;99.90;;;;;;5053406;28;20437;-81
2022/09/16 02:23:00;;;;;;;0.80;0.40;;;13.80;99.90;;;;;;5055747;28;20880;-81
2022/09/16 02:25:29;;;;;;;2.20;1.30;;;13.70;99.90;;;;;;5056244;28;20476;-81
2022/09/16 02:27:57;;;;;;;0.87;0.60;;;13.70;99.90;;;;;;5055659;28;21019;-81
2022/09/16 02:30:23;;;;;;;1.87;0.70;;;13.60;99.90;;;;;;5056163;28;20488;-81
2022/09/16 02:32:56;;;;;;;0.90;0.60;;;13.60;99.90;;;;;;5056133;28;20461;-81
2022/09/16 02:35:25;;;;;;;0.57;0.57;;;13.50;99.90;;;;;;5056229;28;20433;-81
2022/09/16 02:37:58;;;;;;;1.17;0.53;;;13.50;99.90;;;;;;5055899;28;20484;-81
2022/09/16 02:40:27;;;;;;;1.03;0.80;;;13.50;99.90;;;;;;5056080;28;20449;-81
2022/09/16 02:42:55;;;;;;;0.60;0.60;;;13.50;99.90;;;;;;5055474;28;20450;-81
2022/09/16 02:45:25;;;;;;;3.27;0.80;;;13.50;99.90;;;;;;5055727;28;20461;-81
2022/09/16 02:48:02;;;;;;;1.13;0.60;;;13.40;99.90;;;;;;5055725;28;20457;-81
2022/09/16 02:50:31;;;;;;;1.17;0.67;;;13.40;99.90;;;;;;5055290;28;20848;-81
2022/09/16 02:53:02;;;;;;;0.63;0.63;;;13.40;99.90;;;;;;5055524;28;20834;-81
2022/09/16 02:55:38;;;;;;;0.50;0.43;;;13.40;99.90;;;;;;5055616;28;20434;-81
2022/09/16 02:58:05;;;;;;;1.57;0.70;;;13.40;99.90;;;;;;5055522;28;20429;-81
2022/09/16 03:00:37;;;;;;;2.20;0.60;;;13.40;99.90;;;;;;5055465;28;20442;-81
2022/09/16 03:03:05;;;;;;;0.80;0.80;;;13.40;99.90;;;;;;5055375;28;20473;-81
2022/09/16 03:05:32;;;;;;;2.87;0.87;;;13.40;99.90;;;;;;5055616;28;20442;-81
2022/09/16 03:08:01;;;;;;;0.60;0.60;;;13.40;99.90;;;;;;5055004;28;20481;-81
2022/09/16 03:10:36;;;;;;;0.90;0.70;;;13.40;99.90;;;;;;5055165;28;20450;-81
2022/09/16 03:13:11;;;;;;;0.90;0.77;;;13.40;99.90;;;;;;5055170;28;20465;-81
2022/09/16 03:15:57;;;;;;;0.57;0.50;;;13.40;99.90;;;;;;5055213;28;20437;-81
2022/09/16 03:18:44;;;;;;;2.03;1.07;;;13.50;99.90;;;;;;5055356;28;20441;-81
2022/09/16 03:21:17;;;;;;;0.50;0.43;;;13.50;99.90;;;;;;5055316;28;20449;-81
2022/09/16 03:23:52;;;;;;;2.30;2.03;;;13.50;99.90;;;;;;5054986;28;20469;-81
2022/09/16 03:26:30;;;;;;;0.60;0.60;;;13.50;99.90;;;;;;5054843;28;20437;-75
2022/09/16 03:29:07;;;;;;;0.43;0.43;;;13.60;99.90;;;;;;5054930;28;20442;-76
2022/09/16 03:31:40;;;;;;;0.57;0.57;;;13.60;99.90;;;;;;5054458;28;20501;-76
2022/09/16 03:34:14;;;;;;;1.17;0.77;;;13.60;99.90;;;;;;5054332;28;20454;-75
2022/09/16 03:36:44;;;;;;;1.10;0.60;;;13.60;99.90;;;;;;5054829;28;20434;-76
2022/09/16 03:39:11;;;;;;;1.90;0.80;;;13.60;99.90;;;;;;5054780;28;20439;-75
2022/09/16 03:41:39;;;;;;;1.40;0.83;;;13.60;99.90;;;;;;5054356;28;20933;-76
2022/09/16 03:44:05;;;;;;;0.90;0.70;;;13.60;99.90;;;;;;5054225;28;20469;-76
2022/09/16 03:46:32;;;;;;;0.60;0.53;;;13.70;99.90;;;;;;5054575;28;20445;-75
2022/09/16 03:48:59;;;;;;;1.40;0.70;;;13.70;99.90;;;;;;5054782;28;20446;-78
2022/09/16 03:51:27;;;;;;;0.57;0.57;;;13.70;99.90;;;;;;5054431;28;20481;-78
2022/09/16 03:53:54;;;;;;;0.63;0.63;;;13.70;99.90;;;;;;5054512;28;20470;-78
2022/09/16 03:56:23;;;;;;;5.90;1.00;;;13.70;99.90;;;;;;5054678;28;20458;-78
2022/09/16 03:58:50;;;;;;;0.70;0.70;;;13.70;99.90;;;;;;5054347;28;20450;-78
2022/09/16 04:01:17;;;;;;;1.30;1.07;;;13.70;99.90;;;;;;5054295;28;20449;-78
2022/09/16 04:03:44;;;;;;;0.87;0.60;;;13.70;99.90;;;;;;5054170;28;20474;-78
2022/09/16 04:06:11;;;;;;;0.60;0.60;;;13.70;99.90;;;;;;5053881;28;20453;-85
2022/09/16 04:08:39;;;;;;;0.60;0.40;;;13.70;99.90;;;;;;5053888;28;20446;-86
2022/09/16 04:11:06;;;;;;;1.13;0.50;;;13.70;99.90;;;;;;5054056;28;20488;-85
2022/09/16 04:13:35;;;;;;;1.20;0.80;;;13.70;99.90;;;;;;5053971;28;20473;-86
2022/09/16 04:16:02;;;;;;;2.80;0.80;;;13.70;99.90;;;;;;5053756;28;20456;-85
2022/09/16 04:18:31;;;;;;;2.13;1.03;;;13.70;99.90;;;;;;5054049;28;20449;-86
2022/09/16 04:20:58;;;;;;;0.60;0.60;;;13.70;99.90;;;;;;5053697;28;20453;-86
2022/09/16 04:23:24;;;;;;;0.50;0.50;;;13.70;99.90;;;;;;5053626;28;20465;-86
2022/09/16 04:25:55;;;;;;;0.53;0.53;;;13.70;99.90;;;;;;5053790;28;20953;-86
2022/09/16 04:28:22;;;;;;;1.07;0.80;;;13.70;99.90;;;;;;5053405;28;20488;-86
2022/09/16 04:30:49;;;;;;;1.13;1.00;;;13.70;99.90;;;;;;5053707;28;20449;-86
2022/09/16 04:33:16;;;;;;;3.27;0.83;;;13.70;99.90;;;;;;5053720;28;20473;-87
2022/09/16 04:35:44;;;;;;;0.63;0.60;;;13.70;99.90;;;;;;5053423;28;20945;-86
2022/09/16 04:38:10;;;;;;;0.87;0.70;;;13.70;99.90;;;;;;5054843;28;20826;-86
2022/09/16 04:40:38;;;;;;;0.70;0.60;;;13.70;99.90;;;;;;5054772;28;20446;-86
2022/09/16 04:43:06;;;;;;;0.53;0.47;;;13.70;99.90;;;;;;5054776;28;20473;-86
2022/09/16 04:45:33;;;;;;;0.80;0.60;;;13.70;99.90;;;;;;5054934;28;20457;-85
2022/09/16 04:48:00;;;;;;;0.80;0.80;;;13.70;99.90;;;;;;5054458;28;20449;-85
2022/09/16 04:50:27;;;;;;;1.50;0.73;;;13.70;99.90;;;;;;5054014;28;20448;-85
2022/09/16 04:52:54;;;;;;;0.87;0.50;;;13.70;99.90;;;;;;5054336;28;20571;-85
2022/09/16 04:55:22;;;;;;;1.27;0.70;;;13.70;99.90;;;;;;5053861;28;20450;-86
2022/09/16 04:57:48;;;;;;;1.10;0.90;;;13.60;99.90;;;;;;5053568;28;20507;-86
2022/09/16 05:00:17;;;;;;;1.43;0.80;;;13.50;99.90;;;;;;5053588;28;20454;-86
2022/09/16 05:02:45;;;;;;;0.70;0.50;;;13.50;99.90;;;;;;5053300;28;20468;-86
2022/09/16 05:05:12;;;;;;;0.40;0.40;;;13.50;99.90;;;;;;5053483;28;20446;-86
2022/09/16 05:07:38;;;;;;;0.70;0.70;;;13.40;99.90;;;;;;5053422;28;20454;-87
2022/09/16 05:10:06;;;;;;;1.27;0.77;;;13.40;99.90;;;;;;5053124;28;20442;-86
2022/09/16 05:12:33;;;;;;;0.83;0.83;;;13.40;99.90;;;;;;5053224;28;20489;-86
2022/09/16 05:14:59;;;;;;;1.23;0.60;;;13.40;99.90;;;;;;5053351;28;20803;-86
2022/09/16 05:17:29;;;;;;;0.50;0.50;;;13.40;99.90;;;;;;5053360;28;20451;-86
2022/09/16 05:19:55;;;;;;;0.87;0.70;;;13.40;99.90;;;;;;5053252;28;20449;-86
2022/09/16 05:22:22;;;;;;;2.70;0.97;;;13.40;99.90;;;;;;5053099;28;20441;-86
2022/09/16 05:24:49;;;;;;;0.60;0.60;;;13.40;99.90;;;;;;5053280;28;20468;-86
2022/09/16 05:27:16;;;;;;;0.83;0.50;;;13.40;99.90;;;;;;5052843;28;20481;-86
2022/09/16 05:29:43;;;;;;;1.30;0.80;;;13.50;99.90;;;;;;5053260;28;20449;-86
2022/09/16 05:32:10;;;;;;;0.60;0.50;;;13.50;99.90;;;;;;5052996;28;20485;-86
2022/09/16 05:34:38;;;;;;;2.10;0.77;;;13.50;99.90;;;;;;5053107;28;20791;-86
2022/09/16 05:37:04;;;;;;;0.67;0.67;;;13.40;99.90;;;;;;5053309;28;20434;-87
2022/09/16 05:39:31;;;;;;;0.40;0.40;;;13.40;99.90;;;;;;5053133;28;20464;-86
2022/09/16 05:42:00;;;;;;;1.27;0.40;;;13.40;99.90;;;;;;5052706;28;20438;-86
2022/09/16 05:44:28;;;;;;;0.60;0.60;;;13.40;99.90;;;;;;5052885;28;20466;-86
2022/09/16 05:46:55;;;;;;;3.60;0.60;;;13.30;99.90;;;;;;5052866;28;20877;-86
2022/09/16 05:49:22;;;;;;;0.73;0.67;;;13.30;99.90;;;;;;5053070;28;20449;-86
2022/09/16 05:51:51;;;;;;;0.57;0.57;;;13.30;99.90;;;;;;5053053;28;20512;-87
2022/09/16 05:54:19;;;;;;;1.80;0.80;;;13.30;99.90;;;;;;5052691;28;20473;-86
2022/09/16 05:56:46;;;;;;;0.43;0.43;;;13.20;99.90;;;;;;5055690;28;20441;-86
2022/09/16 05:59:14;;;;;;;2.20;1.07;;;13.20;99.90;;;;;;5056549;28;20442;-86
2022/09/16 06:01:41;;;;;;;0.40;0.40;;;13.20;99.90;;;;;;5056827;28;20952;-86
2022/09/16 06:04:11;;;;;;;0.53;0.53;;;13.10;99.90;;;;;;5056828;28;20492;-85
2022/09/16 06:06:39;;;;;;;1.07;0.60;;;13.10;99.90;;;;;;5056980;28;20430;-86
2022/09/16 06:09:10;;;;;;;0.60;0.60;;;13.00;99.90;;;;;;5057686;28;20454;-86
2022/09/16 06:11:39;;;;;;;1.33;0.73;;;12.90;99.90;;;;;;5056925;28;20465;-80
2022/09/16 06:14:06;;;;;;;0.97;0.57;;;12.90;99.90;;;;;;5056281;28;20473;-80
2022/09/16 06:16:33;;;;;;;0.63;0.63;;;12.80;99.90;;;;;;5056328;28;20445;-80
2022/09/16 06:19:00;;;;;;;1.50;0.60;;;12.80;99.90;;;;;;5056277;28;20445;-80
2022/09/16 06:21:28;;;;;;;0.50;0.40;;;12.80;99.90;;;;;;5056261;28;20445;-80
2022/09/16 06:23:55;;;;;;;0.83;0.40;;;12.80;99.90;;;;;;5056098;28;20472;-80
2022/09/16 06:26:25;;;;;;;0.60;0.50;;;12.90;99.90;;;;;;5055879;28;20906;-80
2022/09/16 06:28:53;;;;;;;0.70;0.70;;;12.90;99.90;;;;;;5056142;28;20426;-80
2022/09/16 06:31:22;;;;;;;0.80;0.30;;;12.90;99.90;;;;;;5055998;28;20438;-81
2022/09/16 06:33:50;;;;;;;0.40;0.40;;;12.90;99.90;;;;;;5055668;28;20446;-80
2022/09/16 06:36:18;;;;;;;0.40;0.40;;;12.90;99.90;;;;;;5055694;28;20504;-80
2022/09/16 06:38:46;;;;;;;0.53;0.50;;;12.90;99.90;;;;;;5055896;28;20449;-80
2022/09/16 06:41:14;;;;;;;0.50;0.43;;;12.90;99.90;;;;;;5056131;28;20430;-80
2022/09/16 06:43:43;;;;;;;0.40;0.30;;;12.90;99.90;;;;;;5055896;28;20469;-80
2022/09/16 06:46:14;;;;;;;0.43;0.33;;;12.90;99.90;;;;;;5055464;28;20454;-80
2022/09/16 06:48:42;;;;;;;0.50;0.50;;;12.80;99.90;;;;;;5056566;28;20466;-80
2022/09/16 06:51:11;;;;;;;2.73;1.33;;;12.90;99.90;;;;;;5055680;28;20449;-80
2022/09/16 06:53:41;;;;;;;0.77;0.77;;;12.90;99.90;;;;;;5055471;28;20538;-80
2022/09/16 06:56:11;;;;;;;1.17;0.60;;;12.90;99.90;;;;;;5055861;28;20434;-80
2022/09/16 06:58:40;;;;;;;0.80;0.70;;;12.80;99.90;;;;;;5055512;28;20870;-80
2022/09/16 07:01:09;;;;;;;0.43;0.43;;;12.80;99.90;;;;;;5055441;28;20477;-80
2022/09/16 07:03:38;;;;;;;0.40;0.30;;;12.80;99.90;;;;;;5055055;28;20846;-80
2022/09/16 07:06:06;;;;;;;1.27;0.60;;;12.70;99.90;;;;;;5055266;28;20453;-80
2022/09/16 07:08:34;;;;;;;1.00;0.70;;;12.70;99.90;;;;;;5054351;28;20437;-81
2022/09/16 07:11:02;;;;;;;0.53;0.53;;;12.70;99.90;;;;;;5055059;28;20434;-81
2022/09/16 07:13:29;;;;;;;0.70;0.63;;;12.70;99.90;;;;;;5055411;28;20498;-81
2022/09/16 07:15:59;;;;;;;0.60;0.60;;;12.60;99.90;;;;;;5054912;28;20932;-81
2022/09/16 07:18:29;;;;;;;2.00;0.60;;;12.60;99.90;;;;;;5055221;28;20544;-81
2022/09/16 07:21:02;;;;;;;0.80;0.50;;;12.60;99.90;;;;;;5055068;28;20442;-81
2022/09/16 07:23:29;;;;;;;1.10;1.00;;;12.60;99.90;;;;;;5054975;28;20458;-82
2022/09/16 07:26:01;;;;;;;0.80;0.60;;;12.60;99.90;;;;;;5054996;28;20441;-81
2022/09/16 07:28:28;;;;;;;1.50;0.50;;;12.50;99.90;;;;;;5054988;28;20438;-81
2022/09/16 07:30:54;;;;;;;0.70;0.70;;;12.40;99.90;;;;;;5054911;28;20450;-81
2022/09/16 07:33:21;;;;;;;0.50;0.50;;;12.40;99.90;;;;;;5054767;28;20489;-81
2022/09/16 07:35:49;;;;;;;0.80;0.60;;;12.40;99.90;;;;;;5054522;28;20453;-81
2022/09/16 07:38:16;;;;;;;0.40;0.30;;;12.30;99.90;;;;;;5054757;28;20450;-81
2022/09/16 07:40:43;;;;;;;0.70;0.70;;;12.30;99.90;;;;;;5054757;28;20430;-81
2022/09/16 07:43:10;;;;;;;0.50;0.47;;;12.20;99.90;;;;;;5054604;28;20827;-80
2022/09/16 07:45:36;;;;;;;0.40;0.30;;;12.10;99.90;;;;;;5054895;28;20448;-80
2022/09/16 07:48:03;;;;;;;0.40;0.40;;;12.10;99.90;;;;;;5054860;28;20449;-80
2022/09/16 07:50:30;;;;;;;0.40;0.33;;;12.10;99.90;;;;;;5054242;28;20945;-80
2022/09/16 07:52:58;;;;;;;1.20;0.70;;;12.20;99.90;;;;;;5054378;28;20489;-80
2022/09/16 07:55:26;;;;;;;0.90;0.60;;;12.20;99.90;;;;;;5054452;28;20457;-82
2022/09/16 07:57:53;;;;;;;0.50;0.40;;;12.30;99.90;;;;;;5054378;28;20454;-81
2022/09/16 08:00:20;;;;;;;0.70;0.70;;;12.40;99.90;;;;;;5054591;28;20445;-81
2022/09/16 08:02:46;;;;;;;2.50;0.50;;;12.30;99.90;;;;;;5054175;28;20458;-81
2022/09/16 08:05:15;;;;;;;0.60;0.60;;;12.40;99.90;;;;;;5054498;28;20476;-82
2022/09/16 08:07:41;;;;;;;0.43;0.40;;;12.40;99.90;;;;;;5054214;28;20528;-82
2022/09/16 08:10:10;;;;;;;0.50;0.50;;;12.40;99.90;;;;;;5054221;28;20437;-81
2022/09/16 08:12:36;;;;;;;1.60;0.93;;;12.40;99.90;;;;;;5053970;28;20492;-81
2022/09/16 08:15:03;;;;;;;0.50;0.50;;;12.40;99.90;;;;;;5054075;28;20461;-81
2022/09/16 08:17:30;;;;;;;1.53;0.63;;;12.50;99.90;;;;;;5053718;28;20457;-81
2022/09/16 08:19:57;;;;;;;1.23;0.67;;;12.50;99.90;;;;;;5053608;28;20453;-81
2022/09/16 08:22:24;;;;;;;3.90;0.60;;;12.60;99.90;;;;;;5053803;28;20464;-81
2022/09/16 08:24:51;;;;;;;0.40;0.37;;;12.70;99.90;;;;;;5054092;28;20450;-81
2022/09/16 08:27:19;;;;;;;0.50;0.50;;;12.80;99.90;;;;;;5053521;28;20481;-81
2022/09/16 08:29:46;;;;;;;1.43;0.57;;;12.90;99.90;;;;;;5053506;28;20954;-81
2022/09/16 08:32:12;;;;;;;0.70;0.50;;;13.00;99.90;;;;;;5053595;28;20485;-81
2022/09/16 08:34:40;;;;;;;1.23;0.83;;;13.00;99.90;;;;;;5053709;28;20456;-81
2022/09/16 08:37:06;;;;;;;0.80;0.60;;;12.90;99.90;;;;;;5053383;28;20995;-81
2022/09/16 08:39:33;;;;;;;0.70;0.70;;;12.90;99.90;;;;;;5053649;28;20457;-81
2022/09/16 08:42:28;;;;;;;0.80;0.80;;;12.90;99.90;;;;;;5053609;28;20452;-81
2022/09/16 08:45:11;;;;;;;1.00;0.77;;;12.80;99.90;;;;;;5053997;28;20463;-82
2022/09/16 08:47:49;;;;;;;0.80;0.80;;;12.80;99.90;;;;;;5053601;28;20446;-81
2022/09/16 08:50:17;;;;;;;1.30;0.60;;;12.80;99.90;;;;;;5053514;28;20422;-81
2022/09/16 08:52:46;;;;;;;1.20;1.10;;;12.80;99.90;;;;;;5053374;28;20485;-81
2022/09/16 08:55:18;;;;;;;1.10;0.57;;;12.90;99.90;;;;;;5053476;28;20804;-81
2022/09/16 08:57:53;;;;;;;2.60;0.87;;;12.90;99.90;;;;;;5053472;28;20437;-81
2022/09/16 09:00:20;;;;;;;0.60;0.60;;;12.80;99.90;;;;;;5053469;28;20433;-81
2022/09/16 09:02:53;;;;;;;0.80;0.50;;;12.80;99.90;;;;;;5053423;28;20466;-81
2022/09/16 09:05:27;;;;;;;0.90;0.70;;;12.80;99.90;;;;;;5053397;28;20430;-81
2022/09/16 09:08:09;;;;;;;0.87;0.50;;;12.80;99.90;;;;;;5053647;28;20410;-81
2022/09/16 09:10:42;;;;;;;1.03;0.57;;;12.80;99.90;;;;;;5053305;28;20430;-81
2022/09/16 09:13:19;;;;;;;0.80;0.50;;;12.80;99.90;;;;;;5053160;28;20524;-81
2022/09/16 09:15:52;;;;;;;0.60;0.40;;;12.90;99.90;;;;;;5053265;28;20426;-81
2022/09/16 09:18:31;;;;;;;0.67;0.67;;;12.80;99.90;;;;;;5053232;28;20434;-81
2022/09/16 09:21:10;;;;;;;1.80;0.40;;;12.80;99.90;;;;;;5052936;28;20901;-81
2022/09/16 09:23:49;;;;;;;0.73;0.50;;;12.80;99.90;;;;;;5053084;28;20477;-81
2022/09/16 09:26:21;;;;;;;4.40;0.83;;;12.80;99.90;;;;;;5052978;28;20433;-81
2022/09/16 09:29:15;;;;;;;0.70;0.70;;;12.70;99.90;;;;;;5052837;28;20918;-81
2022/09/16 09:31:53;;;;;;;0.80;0.73;;;12.70;99.90;;;;;;5055838;28;20429;-81
2022/09/16 09:34:32;;;;;;;0.40;0.40;;;12.70;99.90;;;;;;5057035;28;20488;-81
2022/09/16 09:37:18;;;;;;;0.80;0.60;;;12.80;99.90;;;;;;5057142;28;20791;-81
2022/09/16 09:39:57;;;;;;;0.50;0.40;;;12.80;99.90;;;;;;5057040;28;20495;-81
2022/09/16 09:42:28;;;;;;;0.73;0.70;;;12.80;99.90;;;;;;5056970;28;20438;-81
2022/09/16 09:45:02;;;;;;;1.03;0.70;;;12.90;99.90;;;;;;5056691;28;20438;-81
2022/09/16 09:47:33;;;;;;;0.80;0.57;;;12.90;99.90;;;;;;5056930;28;20461;-81
2022/09/16 09:50:12;;;;;;;1.03;0.60;;;13.00;99.90;;;;;;5056892;28;20437;-81
2022/09/16 09:52:46;;;;;;;0.53;0.50;;;13.10;99.90;;;;;;5056685;28;20488;-81
2022/09/16 09:55:16;;;;;;;0.47;0.37;;;13.10;99.90;;;;;;5056786;28;20528;-81
2022/09/16 09:57:56;;;;;;;0.70;0.70;;;13.10;99.90;;;;;;5057012;28;20434;-81
2022/09/16 10:00:24;;;;;;;0.90;0.60;;;13.10;99.90;;;;;;5056680;28;20458;-81
2022/09/16 10:02:51;;;;;;;0.60;0.40;;;13.20;99.90;;;;;;5056505;28;20469;-81
2022/09/16 10:05:23;;;;;;;1.13;0.40;;;13.10;99.90;;;;;;5056566;28;20446;-81
2022/09/16 10:07:52;;;;;;;1.00;1.00;;;13.20;99.90;;;;;;5057232;28;20815;-81
2022/09/16 10:10:21;;;;;;;0.40;0.40;;;13.20;99.90;;;;;;5056425;28;20456;-81
2022/09/16 10:12:48;;;;;;;0.63;0.60;;;13.20;99.90;;;;;;5055981;28;20989;-81
2022/09/16 10:15:21;;;;;;;0.63;0.50;;;13.20;99.90;;;;;;5056576;28;20960;-81
2022/09/16 10:17:51;;;;;;;0.50;0.50;;;13.20;99.90;;;;;;5056356;28;20426;-81
2022/09/16 10:20:27;;;;;;;0.60;0.60;;;13.20;99.90;;;;;;5056265;28;20441;-81
2022/09/16 10:23:02;;;;;;;0.83;0.50;;;13.30;99.90;;;;;;5055852;28;20469;-82
2022/09/16 10:25:31;;;;;;;0.70;0.70;;;13.40;99.90;;;;;;5056199;28;20497;-82
2022/09/16 10:28:00;;;;;;;0.53;0.53;;;13.50;99.90;;;;;;5055882;28;20477;-82
2022/09/16 10:30:28;;;;;;;0.60;0.50;;;13.60;99.90;;;;;;5056062;28;20495;-82
2022/09/16 10:33:00;;;;;;;0.50;0.50;;;13.70;99.90;;;;;;5055967;28;20519;-82
2022/09/16 10:35:27;;;;;;;0.80;0.60;;;13.80;99.90;;;;;;5056002;28;20422;-82
2022/09/16 10:37:57;;;;;;;0.50;0.43;;;13.80;99.90;;;;;;5055646;28;20450;-82
2022/09/16 10:40:24;;;;;;;0.40;0.40;;;13.90;99.90;;;;;;5055946;28;20452;-82
2022/09/16 10:42:53;;;;;;;2.30;0.97;;;14.10;99.90;;;;;;5055464;28;20825;-82
2022/09/16 10:45:25;;;;;;;0.50;0.50;;;14.10;99.90;;;;;;5055828;28;20454;-82
2022/09/16 10:47:57;;;;;;;1.40;0.70;;;14.10;99.90;;;;;;5055858;28;20484;-82
2022/09/16 10:50:24;;;;;;;1.20;1.10;;;14.20;99.90;;;;;;5055970;28;20777;-82
2022/09/16 10:52:52;;;;;;;0.90;0.90;;;14.20;99.90;;;;;;5055481;28;20976;-82
2022/09/16 10:55:25;;;;;;;1.20;0.50;;;14.20;99.90;;;;;;5055339;28;20513;-82
2022/09/16 10:57:52;;;;;;;0.70;0.60;;;14.20;99.90;;;;;;5055647;28;20437;-82
2022/09/16 11:00:21;;;;;;;0.50;0.50;;;14.10;99.90;;;;;;5055581;28;20445;-82
2022/09/16 11:03:25;;;;;;;1.23;0.90;;;14.10;99.90;;;;;;5055407;28;20469;-81
2022/09/16 11:06:07;;;;;;;0.37;0.33;;;14.10;99.90;;;;;;5055156;28;20445;-82
2022/09/16 11:08:47;;;;;;;0.40;0.40;;;14.10;99.90;;;;;;5055689;28;20434;-82
2022/09/16 11:11:25;;;;;;;0.80;0.60;;;14.10;99.90;;;;;;5055430;28;20798;-82
2022/09/16 11:14:00;;;;;;;1.63;0.50;;;14.10;99.90;;;;;;5055200;28;20481;-82
2022/09/16 11:16:52;;;;;;;0.50;0.50;;;14.10;99.90;;;;;;5055268;28;20434;-82
2022/09/16 11:19:26;;;;;;;0.40;0.40;;;14.00;99.90;;;;;;5055213;28;20434;-82
2022/09/16 11:22:04;;;;;;;1.17;0.50;;;14.00;99.90;;;;;;5054874;28;20434;-82
2022/09/16 11:24:48;;;;;;;0.40;0.40;;;14.00;99.90;;;;;;5055097;28;20493;-82
2022/09/16 11:27:24;;;;;;;0.40;0.40;;;14.00;99.90;;;;;;5054720;28;20905;-82
2022/09/16 11:30:02;;;;;;;0.47;0.47;;;14.00;99.90;;;;;;5054744;28;20436;-82
2022/09/16 11:32:44;;;;;;;0.43;0.40;;;13.90;99.90;;;;;;5054914;28;20477;-82
2022/09/16 11:35:36;;;;;;;1.60;0.63;;;13.90;99.90;;;;;;5054882;28;20833;-81
2022/09/16 11:38:13;;;;;;;0.40;0.40;;;13.80;99.90;;;;;;5054847;28;20434;-81
2022/09/16 11:40:46;;;;;;;1.00;0.50;;;14.00;99.90;;;;;;5054789;28;20472;-81
2022/09/16 11:43:54;;;;;;;0.67;0.63;;;14.00;99.90;;;;;;5055153;28;20493;-82
2022/09/16 11:46:28;;;;;;;0.77;0.37;;;14.20;99.90;;;;;;5029994;28;20463;-81
2022/09/16 11:49:12;;;;;;;0.47;0.40;;;14.20;99.90;;;;;;5054916;28;20422;-82
2022/09/16 11:51:54;;;;;;;0.50;0.50;;;14.30;99.90;;;;;;5054661;28;20453;-81
2022/09/16 11:54:35;;;;;;;0.60;0.60;;;14.40;99.90;;;;;;5053591;28;20478;-81
2022/09/16 11:57:08;;;;;;;0.60;0.50;;;14.50;99.90;;;;;;5054479;28;20460;-81
2022/09/16 11:59:39;;;;;;;0.40;0.30;;;14.50;99.90;;;;;;5054106;28;20457;-81
2022/09/16 12:02:23;;;;;;;0.40;0.33;;;14.50;99.90;;;;;;5054075;28;20434;-81
2022/09/16 12:04:56;;;;;;;1.43;0.83;;;14.60;99.90;;;;;;5054334;28;20433;-81
2022/09/16 12:07:29;;;;;;;0.50;0.43;;;14.70;99.90;;;;;;5054311;28;20476;-81
2022/09/16 12:10:00;;;;;;;0.60;0.60;;;14.80;99.90;;;;;;5053905;28;20774;-81
2022/09/16 12:12:33;;;;;;;0.80;0.43;;;14.90;99.90;;;;;;5054108;28;20434;-81
2022/09/16 12:15:03;;;;;;;0.40;0.40;;;15.00;99.90;;;;;;5054291;28;20458;-81
2022/09/16 12:17:33;;;;;;;0.70;0.60;;;15.00;99.90;;;;;;5054064;28;20449;-81
2022/09/16 12:20:06;;;;;;;0.33;0.30;;;15.00;99.90;;;;;;5054305;28;20426;-81
2022/09/16 12:22:41;;;;;;;0.40;0.40;;;15.00;99.90;;;;;;5053966;28;20470;-81
2022/09/16 12:25:12;;;;;;;0.50;0.50;;;15.10;99.90;;;;;;5053945;28;20457;-81
2022/09/16 12:27:44;;;;;;;0.50;0.40;;;15.00;99.90;;;;;;5053703;28;20477;-81
2022/09/16 12:30:17;;;;;;;0.57;0.50;;;15.00;99.90;;;;;;5053945;28;20430;-81
2022/09/16 12:32:52;;;;;;;0.50;0.50;;;14.90;99.90;;;;;;5053709;28;20466;-81
2022/09/16 12:35:23;;;;;;;0.53;0.40;;;14.80;99.90;;;;;;5053697;28;20496;-81
2022/09/16 12:37:53;;;;;;;0.40;0.40;;;14.80;99.90;;;;;;5053980;28;20430;-81
2022/09/16 12:40:23;;;;;;;0.40;0.30;;;14.80;99.90;;;;;;5053760;28;20430;-81
2022/09/16 12:43:16;;;;;;;0.50;0.50;;;14.70;99.90;;;;;;5053837;28;20462;-81
2022/09/16 12:46:14;;;;;;;0.50;0.50;;;14.70;99.90;;;;;;5034965;28;20968;-81
2022/09/16 12:49:10;;;;;;;0.40;0.40;;;14.60;99.90;;;;;;5053555;28;20477;-81
2022/09/16 12:52:01;;;;;;;0.53;0.50;;;14.60;99.90;;;;;;5053226;28;20925;-81
2022/09/16 12:54:55;;;;;;;0.40;0.40;;;14.60;99.90;;;;;;5053362;28;20492;-81
2022/09/16 12:57:37;;;;;;;0.80;0.60;;;14.70;99.90;;;;;;5053422;28;20472;-82
2022/09/16 13:00:15;;;;;;;1.13;0.60;;;14.80;99.90;;;;;;5053480;28;20440;-82
2022/09/16 13:02:46;;;;;;;1.43;1.43;;;14.90;99.90;;;;;;5053332;28;20465;-82
2022/09/16 13:05:20;;;;;;;0.37;0.33;;;15.00;99.90;;;;;;5053036;28;20797;-82
2022/09/16 13:07:52;;;;;;;4.13;0.43;;;15.00;99.90;;;;;;5053337;28;20473;-83
2022/09/16 13:10:23;;;;;;;0.63;0.50;;;15.10;99.90;;;;;;5052986;28;20918;-83